Time;durP1;ratioP1;P1;durP2;ratioP2;P2;SDS_P1;SDS_P2;PMS_P1;PMS_P2;Temp;Humidity;BMP_temperature;BMP_pressure;BME280_temperature;BME280_humidity;BME280_pressure;Samples;Min_cycle;Max_cycle;Signal;HPM_P1;HPM_P2
2023/05/30 00:01:41;;;;;;;6.00;4.63;;;23.20;38.60;;;;;;5033204;28;20201;-49
2023/05/30 00:04:07;;;;;;;4.93;4.20;;;23.30;38.50;;;;;;5033557;28;20511;-50
2023/05/30 00:06:33;;;;;;;4.17;3.77;;;23.30;38.50;;;;;;5044295;28;20232;-51
2023/05/30 00:09:00;;;;;;;4.60;4.03;;;23.40;38.50;;;;;;5049004;28;20198;-49
2023/05/30 00:11:28;;;;;;;5.37;4.20;;;23.30;38.60;;;;;;5033186;28;20490;-50
2023/05/30 00:13:54;;;;;;;6.07;3.97;;;23.30;38.50;;;;;;5033405;28;20432;-52
2023/05/30 00:16:20;;;;;;;4.60;4.20;;;23.10;38.70;;;;;;5033431;28;20483;-50
2023/05/30 00:18:48;;;;;;;4.13;3.73;;;23.20;38.80;;;;;;5031650;28;20197;-50
2023/05/30 00:21:17;;;;;;;4.80;3.73;;;23.20;38.70;;;;;;5032853;28;21000;-49
2023/05/30 00:23:45;;;;;;;4.87;4.10;;;23.30;38.50;;;;;;5033116;28;20440;-51
2023/05/30 00:26:11;;;;;;;5.20;4.17;;;23.40;38.60;;;;;;5033113;28;20443;-47
2023/05/30 00:28:37;;;;;;;4.83;3.87;;;23.30;38.70;;;;;;5033120;28;20478;-48
2023/05/30 00:31:04;;;;;;;5.77;3.63;;;23.50;38.50;;;;;;5032831;28;20800;-47
2023/05/30 00:33:29;;;;;;;4.70;4.20;;;23.40;38.50;;;;;;5033034;28;20512;-47
2023/05/30 00:35:55;;;;;;;6.33;3.67;;;23.50;38.80;;;;;;5032941;28;20487;-48
2023/05/30 00:38:20;;;;;;;6.33;3.87;;;23.50;38.80;;;;;;5033005;28;20228;-50
2023/05/30 00:40:46;;;;;;;6.10;3.67;;;23.40;38.60;;;;;;5032468;28;20223;-50
2023/05/30 00:43:12;;;;;;;5.03;4.00;;;23.50;38.70;;;;;;5031126;28;20704;-51
2023/05/30 00:45:39;;;;;;;4.10;3.67;;;23.50;38.70;;;;;;5032778;28;20220;-49
2023/05/30 00:48:05;;;;;;;4.40;3.80;;;23.50;38.80;;;;;;5032989;28;20247;-50
2023/05/30 00:50:32;;;;;;;6.77;4.03;;;23.50;39.10;;;;;;5032529;28;20431;-49
2023/05/30 00:52:59;;;;;;;8.00;4.40;;;23.40;39.10;;;;;;5035095;28;20420;-50
2023/05/30 00:55:27;;;;;;;6.13;3.63;;;23.30;39.20;;;;;;5052494;28;20513;-50
2023/05/30 00:57:53;;;;;;;5.47;4.37;;;23.20;39.10;;;;;;5033718;28;20789;-51
2023/05/30 01:00:19;;;;;;;4.10;3.80;;;23.10;39.30;;;;;;5031565;28;20426;-48
2023/05/30 01:02:46;;;;;;;4.37;3.60;;;23.00;39.30;;;;;;5032175;28;20427;-49
2023/05/30 01:05:14;;;;;;;6.73;3.70;;;23.00;39.50;;;;;;5032255;28;20472;-48
2023/05/30 01:07:48;;;;;;;6.90;4.20;;;23.00;39.60;;;;;;5032304;28;20432;-48
2023/05/30 01:10:15;;;;;;;5.40;4.27;;;22.90;39.90;;;;;;5030662;28;20546;-47
2023/05/30 01:13:13;;;;;;;4.33;3.90;;;23.00;39.80;;;;;;5032129;28;20475;-48
2023/05/30 01:15:48;;;;;;;4.87;4.00;;;22.90;40.10;;;;;;5032097;28;20479;-49
2023/05/30 01:18:24;;;;;;;4.63;3.70;;;22.80;40.40;;;;;;5032002;28;20439;-50
2023/05/30 01:20:54;;;;;;;5.77;4.57;;;22.80;40.20;;;;;;5031879;28;20523;-50
2023/05/30 01:23:44;;;;;;;4.20;3.80;;;22.70;40.30;;;;;;5032238;28;20489;-51
2023/05/30 01:26:31;;;;;;;4.47;3.87;;;22.70;40.30;;;;;;5032337;28;20436;-49
2023/05/30 01:29:02;;;;;;;6.20;4.03;;;22.70;40.60;;;;;;5040886;28;20798;-49
2023/05/30 01:31:29;;;;;;;4.73;4.10;;;22.50;40.60;;;;;;5051350;28;20486;-47
2023/05/30 01:33:55;;;;;;;9.27;4.00;;;22.50;40.80;;;;;;5051971;28;20501;-49
2023/05/30 01:36:21;;;;;;;7.43;4.27;;;22.50;40.80;;;;;;5050204;28;20857;-47
2023/05/30 01:38:47;;;;;;;4.60;4.20;;;22.50;40.60;;;;;;5051861;28;20431;-48
2023/05/30 01:41:30;;;;;;;4.37;3.97;;;22.40;40.60;;;;;;5051421;28;20207;-47
2023/05/30 01:44:07;;;;;;;4.83;4.10;;;22.40;40.90;;;;;;5051832;28;20193;-50
2023/05/30 01:46:35;;;;;;;5.37;3.93;;;22.40;40.90;;;;;;5051786;28;20423;-50
2023/05/30 01:49:13;;;;;;;5.57;3.27;;;22.40;41.00;;;;;;5051494;28;20522;-50
2023/05/30 01:51:52;;;;;;;5.60;4.33;;;22.40;41.00;;;;;;5051345;28;20435;-51
2023/05/30 01:54:20;;;;;;;4.67;3.40;;;22.50;40.90;;;;;;5037836;28;20447;-50
2023/05/30 01:56:50;;;;;;;6.17;4.50;;;22.60;40.90;;;;;;5031508;28;20986;-50
2023/05/30 01:59:18;;;;;;;5.40;3.73;;;22.60;40.90;;;;;;5031822;28;20813;-49
2023/05/30 02:02:01;;;;;;;5.90;3.60;;;22.50;41.10;;;;;;5030942;28;20444;-52
2023/05/30 02:04:26;;;;;;;5.87;4.23;;;22.50;41.00;;;;;;5030079;28;20442;-49
2023/05/30 02:06:52;;;;;;;4.17;3.33;;;22.50;41.70;;;;;;5044904;28;20505;-47
2023/05/30 02:09:17;;;;;;;5.47;4.00;;;22.50;41.10;;;;;;5030041;28;20221;-49
2023/05/30 02:11:46;;;;;;;6.63;4.70;;;22.50;41.20;;;;;;5032500;28;20211;-49
2023/05/30 02:14:11;;;;;;;5.20;4.07;;;22.50;41.30;;;;;;5042483;28;20193;-49
2023/05/30 02:16:37;;;;;;;4.80;3.90;;;22.40;41.70;;;;;;5055347;28;21395;-50
2023/05/30 02:19:02;;;;;;;6.67;3.80;;;22.40;41.70;;;;;;5055328;28;20192;-53
2023/05/30 02:21:39;;;;;;;6.80;4.33;;;22.30;41.60;;;;;;5054897;28;20267;-52
2023/05/30 02:24:21;;;;;;;4.70;4.17;;;22.30;41.60;;;;;;5037593;28;20666;-53
2023/05/30 02:26:49;;;;;;;5.40;4.43;;;22.30;41.80;;;;;;5052245;28;20447;-52
2023/05/30 02:29:15;;;;;;;4.60;3.47;;;22.30;41.70;;;;;;5053552;28;20438;-54
2023/05/30 02:31:40;;;;;;;6.37;4.30;;;22.20;41.70;;;;;;5055103;28;20435;-50
2023/05/30 02:34:06;;;;;;;4.73;4.00;;;22.20;41.70;;;;;;5055277;28;20250;-53
2023/05/30 02:36:32;;;;;;;5.17;3.93;;;22.20;41.90;;;;;;5055014;28;20224;-52
2023/05/30 02:39:04;;;;;;;6.60;3.70;;;22.20;41.90;;;;;;5055157;28;20194;-53
2023/05/30 02:41:30;;;;;;;4.47;4.07;;;22.10;42.00;;;;;;5054616;28;20473;-50
2023/05/30 02:43:55;;;;;;;4.23;3.80;;;22.10;42.20;;;;;;5055016;28;20835;-54
2023/05/30 02:46:21;;;;;;;6.53;4.47;;;22.00;42.20;;;;;;5055121;28;20192;-54
2023/05/30 02:48:47;;;;;;;4.67;3.63;;;21.90;42.50;;;;;;5055022;28;20197;-54
2023/05/30 02:51:12;;;;;;;4.37;3.97;;;21.90;42.70;;;;;;5036679;28;20203;-53
2023/05/30 02:53:41;;;;;;;6.43;4.70;;;21.80;42.80;;;;;;5046592;28;20193;-51
2023/05/30 02:56:12;;;;;;;6.30;4.00;;;21.80;43.10;;;;;;5033092;28;20233;-51
2023/05/30 02:58:50;;;;;;;7.00;4.07;;;21.80;43.20;;;;;;5034606;28;20431;-50
2023/05/30 03:01:16;;;;;;;5.77;4.00;;;21.70;43.10;;;;;;5041558;28;20805;-50
2023/05/30 03:03:42;;;;;;;5.17;4.20;;;21.70;43.20;;;;;;5054461;28;20426;-53
2023/05/30 03:06:13;;;;;;;8.03;4.27;;;21.60;43.20;;;;;;5054492;28;20305;-50
2023/05/30 03:08:40;;;;;;;5.70;4.40;;;21.60;43.50;;;;;;5052768;28;20218;-49
2023/05/30 03:11:06;;;;;;;6.20;4.10;;;21.60;43.50;;;;;;5034310;28;20762;-50
2023/05/30 03:13:31;;;;;;;4.87;3.93;;;21.60;43.60;;;;;;5034643;28;20434;-50
2023/05/30 03:15:57;;;;;;;5.80;4.40;;;21.60;43.60;;;;;;5034606;28;20680;-53
2023/05/30 03:18:22;;;;;;;6.77;3.63;;;21.50;43.60;;;;;;5034445;28;20656;-50
2023/05/30 03:20:48;;;;;;;6.37;4.10;;;21.50;43.60;;;;;;5034072;28;20558;-52
2023/05/30 03:23:14;;;;;;;4.30;3.97;;;21.50;43.60;;;;;;5031712;28;20240;-50
2023/05/30 03:25:39;;;;;;;6.20;4.30;;;21.50;43.60;;;;;;5034595;28;20215;-53
2023/05/30 03:28:06;;;;;;;6.80;4.50;;;21.50;43.60;;;;;;5034435;28;20200;-54
2023/05/30 03:30:34;;;;;;;4.37;3.80;;;21.50;43.60;;;;;;5033934;28;20201;-49
2023/05/30 03:33:00;;;;;;;5.50;4.00;;;21.50;43.60;;;;;;5034137;28;20431;-49
2023/05/30 03:35:26;;;;;;;4.60;4.20;;;21.30;43.90;;;;;;5034029;28;20472;-53
2023/05/30 03:37:52;;;;;;;4.10;3.70;;;21.30;44.10;;;;;;5034191;28;20424;-49
2023/05/30 03:40:18;;;;;;;4.50;4.10;;;21.30;44.10;;;;;;5033777;28;20205;-54
2023/05/30 03:42:44;;;;;;;5.10;4.00;;;21.30;44.10;;;;;;5034066;28;20844;-50
2023/05/30 03:45:10;;;;;;;5.63;4.33;;;21.30;44.10;;;;;;5033930;28;20204;-51
2023/05/30 03:47:36;;;;;;;8.33;4.77;;;21.30;44.10;;;;;;5033976;28;20428;-50
2023/05/30 03:50:04;;;;;;;7.27;4.40;;;21.30;44.10;;;;;;5032387;28;20197;-49
2023/05/30 03:52:47;;;;;;;5.97;4.00;;;21.30;44.20;;;;;;5033666;28;20197;-51
2023/05/30 03:55:28;;;;;;;5.43;3.60;;;21.10;44.50;;;;;;5033906;28;20428;-53
2023/05/30 03:57:56;;;;;;;4.73;4.07;;;21.10;44.50;;;;;;5035876;28;20838;-53
2023/05/30 04:00:22;;;;;;;4.97;4.47;;;21.10;44.50;;;;;;5053236;28;20431;-51
2023/05/30 04:02:48;;;;;;;4.87;4.07;;;21.10;44.60;;;;;;5053521;28;20427;-49
2023/05/30 04:05:13;;;;;;;8.37;4.60;;;21.10;44.70;;;;;;5053006;28;20236;-54
2023/05/30 04:07:45;;;;;;;8.37;5.10;;;21.10;44.70;;;;;;5053455;28;20200;-54
2023/05/30 04:10:10;;;;;;;4.80;4.17;;;21.10;44.80;;;;;;5038990;28;20645;-53
2023/05/30 04:12:37;;;;;;;4.50;3.90;;;21.10;44.90;;;;;;5033551;28;20470;-54
2023/05/30 04:15:03;;;;;;;5.83;4.23;;;21.10;45.00;;;;;;5031423;28;20209;-52
2023/05/30 04:17:30;;;;;;;7.20;4.63;;;21.10;45.00;;;;;;5033335;28;20487;-50
2023/05/30 04:19:56;;;;;;;5.53;4.23;;;21.10;45.20;;;;;;5033210;28;20254;-52
2023/05/30 04:22:21;;;;;;;6.27;4.07;;;21.10;45.30;;;;;;5033013;28;20416;-48
2023/05/30 04:24:47;;;;;;;8.43;4.87;;;21.10;45.30;;;;;;5033005;28;20193;-47
2023/05/30 04:27:13;;;;;;;6.77;4.40;;;21.10;45.20;;;;;;5033097;28;20189;-50
2023/05/30 04:29:40;;;;;;;6.30;4.30;;;21.10;45.20;;;;;;5032829;28;20599;-51
2023/05/30 04:32:06;;;;;;;4.73;4.03;;;21.10;45.30;;;;;;5032596;28;20459;-50
2023/05/30 04:34:32;;;;;;;4.70;4.30;;;21.10;45.30;;;;;;5032607;28;20455;-52
2023/05/30 04:36:58;;;;;;;5.13;4.57;;;21.10;45.30;;;;;;5032875;28;20484;-51
2023/05/30 04:39:23;;;;;;;6.63;4.63;;;21.10;45.50;;;;;;5032989;28;20239;-50
2023/05/30 04:41:51;;;;;;;7.70;4.40;;;21.10;45.60;;;;;;5030950;28;20194;-48
2023/05/30 04:44:18;;;;;;;5.70;4.73;;;21.10;45.70;;;;;;5032489;28;20676;-47
2023/05/30 04:46:46;;;;;;;8.60;5.23;;;21.20;45.90;;;;;;5032533;28;20834;-51
2023/05/30 04:49:16;;;;;;;5.40;4.30;;;21.20;46.00;;;;;;5032649;28;20456;-48
2023/05/30 04:51:42;;;;;;;7.10;4.10;;;21.20;45.80;;;;;;5032251;28;20440;-52
2023/05/30 04:54:08;;;;;;;7.40;4.30;;;21.20;45.80;;;;;;5044910;28;20423;-48
2023/05/30 04:56:34;;;;;;;6.30;4.73;;;21.30;45.70;;;;;;5043749;28;20488;-48
2023/05/30 04:59:00;;;;;;;4.70;4.17;;;21.20;45.70;;;;;;5032414;28;20798;-48
2023/05/30 05:01:25;;;;;;;8.70;4.60;;;21.20;46.10;;;;;;5032229;28;20416;-47
2023/05/30 05:03:51;;;;;;;4.97;4.37;;;21.30;46.20;;;;;;5032676;28;20191;-47
2023/05/30 05:06:17;;;;;;;5.97;4.47;;;21.30;46.30;;;;;;5041047;28;20615;-51
2023/05/30 05:08:42;;;;;;;5.40;4.73;;;21.30;46.40;;;;;;5048692;28;20192;-47
2023/05/30 05:11:09;;;;;;;9.23;4.40;;;21.40;46.40;;;;;;5032023;28;20193;-47
2023/05/30 05:13:35;;;;;;;6.40;4.80;;;21.40;46.20;;;;;;5032496;28;20193;-47
2023/05/30 05:16:01;;;;;;;6.33;4.63;;;21.50;46.30;;;;;;5032166;28;20492;-48
2023/05/30 05:18:27;;;;;;;5.20;4.13;;;21.50;46.20;;;;;;5032173;28;20531;-48
2023/05/30 05:20:53;;;;;;;5.90;4.40;;;21.60;46.20;;;;;;5031818;28;20193;-51
2023/05/30 05:23:18;;;;;;;5.97;4.30;;;21.60;45.80;;;;;;5032039;28;20914;-51
2023/05/30 05:25:45;;;;;;;7.00;3.97;;;21.70;45.60;;;;;;5032116;28;20283;-48
2023/05/30 05:28:10;;;;;;;4.80;4.10;;;21.80;45.40;;;;;;5032035;28;20200;-48
2023/05/30 05:30:36;;;;;;;4.60;4.20;;;21.80;45.30;;;;;;5031956;28;20926;-47
2023/05/30 05:33:02;;;;;;;5.47;4.13;;;21.80;45.40;;;;;;5031993;28;20208;-49
2023/05/30 05:35:28;;;;;;;5.77;4.13;;;21.90;45.50;;;;;;5030303;28;20448;-48
2023/05/30 05:37:53;;;;;;;5.47;4.10;;;21.90;45.50;;;;;;5031946;28;20191;-49
2023/05/30 05:40:19;;;;;;;5.63;4.40;;;22.00;45.50;;;;;;5031717;28;20212;-47
2023/05/30 05:42:45;;;;;;;6.10;4.50;;;22.00;45.40;;;;;;5031659;28;20197;-48
2023/05/30 05:45:11;;;;;;;7.07;4.33;;;22.10;45.50;;;;;;5031867;28;20433;-47
2023/05/30 05:47:37;;;;;;;6.20;4.60;;;22.20;45.20;;;;;;5031398;28;20196;-47
2023/05/30 05:50:02;;;;;;;6.27;4.50;;;22.20;44.90;;;;;;5031554;28;20236;-47
2023/05/30 05:52:28;;;;;;;5.07;4.10;;;22.20;44.50;;;;;;5031777;28;20189;-47
2023/05/30 05:54:54;;;;;;;5.00;4.30;;;22.20;45.20;;;;;;5050062;28;20663;-50
2023/05/30 05:57:19;;;;;;;7.23;4.80;;;22.30;46.10;;;;;;5037326;28;20224;-47
2023/05/30 05:59:45;;;;;;;5.60;4.27;;;22.20;46.30;;;;;;5031730;28;20196;-48
2023/05/30 06:02:11;;;;;;;4.77;4.10;;;22.30;46.30;;;;;;5029667;28;20193;-47
2023/05/30 06:04:38;;;;;;;8.53;4.57;;;22.30;46.20;;;;;;5031649;28;20215;-48
2023/05/30 06:07:04;;;;;;;4.67;4.03;;;22.40;46.20;;;;;;5046680;28;20431;-48
2023/05/30 06:09:34;;;;;;;6.57;4.77;;;22.50;46.20;;;;;;5042799;28;20427;-47
2023/05/30 06:12:00;;;;;;;5.67;4.40;;;22.60;46.60;;;;;;5031093;28;20974;-47
2023/05/30 06:14:26;;;;;;;3.93;3.60;;;22.60;46.10;;;;;;5031566;28;20448;-48
2023/05/30 06:16:52;;;;;;;7.93;4.70;;;22.60;45.00;;;;;;5031485;28;20527;-48
2023/05/30 06:19:18;;;;;;;5.40;3.30;;;22.60;44.30;;;;;;5031596;28;20196;-49
2023/05/30 06:21:43;;;;;;;4.77;4.00;;;22.60;44.10;;;;;;5031347;28;20193;-48
2023/05/30 06:24:09;;;;;;;6.73;4.30;;;22.70;44.00;;;;;;5031444;28;20194;-48
2023/05/30 06:26:34;;;;;;;5.10;4.30;;;22.80;44.40;;;;;;5031252;28;20196;-47
2023/05/30 06:29:00;;;;;;;7.20;4.60;;;22.80;44.20;;;;;;5029771;28;20197;-47
2023/05/30 06:31:26;;;;;;;6.00;4.53;;;22.90;44.40;;;;;;5030956;28;20189;-49
2023/05/30 06:33:51;;;;;;;7.73;4.30;;;23.00;44.20;;;;;;5031435;28;20637;-48
2023/05/30 06:36:17;;;;;;;5.60;3.60;;;23.10;44.20;;;;;;5031196;28;20311;-49
2023/05/30 06:38:43;;;;;;;6.00;4.37;;;23.10;44.80;;;;;;5031398;28;20197;-47
2023/05/30 06:41:09;;;;;;;5.10;4.13;;;23.20;43.40;;;;;;5030916;28;20946;-47
2023/05/30 06:43:34;;;;;;;10.80;4.50;;;23.20;43.70;;;;;;5031207;28;20251;-47
2023/05/30 06:46:00;;;;;;;5.17;4.17;;;23.30;43.40;;;;;;5030999;28;20301;-48
2023/05/30 06:48:26;;;;;;;4.90;4.07;;;23.40;42.70;;;;;;5031087;28;20197;-48
2023/05/30 06:50:51;;;;;;;5.87;4.50;;;23.50;42.60;;;;;;5030844;28;20200;-48
2023/05/30 06:53:17;;;;;;;4.50;3.87;;;23.70;43.30;;;;;;5032882;28;20227;-51
2023/05/30 06:55:42;;;;;;;4.20;3.67;;;23.70;42.90;;;;;;5048002;28;20584;-47
2023/05/30 06:58:08;;;;;;;5.00;4.07;;;23.80;43.10;;;;;;5033205;28;20267;-47
2023/05/30 07:00:34;;;;;;;5.03;3.93;;;23.90;42.80;;;;;;5034394;28;20193;-47
2023/05/30 07:03:00;;;;;;;4.00;3.60;;;24.00;42.50;;;;;;5034654;28;20288;-49
2023/05/30 07:05:26;;;;;;;4.60;4.20;;;23.90;42.10;;;;;;5036350;28;20559;-48
2023/05/30 07:07:52;;;;;;;5.97;3.83;;;24.10;41.40;;;;;;5054831;28;20246;-49
2023/05/30 07:10:18;;;;;;;4.93;4.07;;;24.00;42.30;;;;;;5038861;28;20797;-49
2023/05/30 07:12:44;;;;;;;4.07;3.53;;;24.20;41.50;;;;;;5034496;28;20251;-48
2023/05/30 07:15:10;;;;;;;6.67;4.20;;;24.20;41.00;;;;;;5034501;28;20243;-48
2023/05/30 07:17:35;;;;;;;8.33;4.17;;;24.20;40.70;;;;;;5034420;28;20645;-48
2023/05/30 07:20:01;;;;;;;6.53;4.10;;;24.20;41.20;;;;;;5032608;28;20443;-51
2023/05/30 07:22:27;;;;;;;4.77;3.60;;;24.30;40.80;;;;;;5034366;28;20285;-47
2023/05/30 07:24:52;;;;;;;8.57;4.23;;;24.40;40.60;;;;;;5034436;28;20295;-48
2023/05/30 07:27:18;;;;;;;5.70;3.87;;;24.50;41.50;;;;;;5034339;28;20189;-47
2023/05/30 07:29:44;;;;;;;7.23;4.03;;;24.50;40.50;;;;;;5034192;28;20298;-47
2023/05/30 07:32:12;;;;;;;4.97;4.37;;;24.60;39.90;;;;;;5033904;28;20203;-49
2023/05/30 07:34:40;;;;;;;4.30;3.93;;;24.50;39.70;;;;;;5034231;28;20679;-48
2023/05/30 07:37:06;;;;;;;4.53;3.57;;;24.50;39.90;;;;;;5034075;28;20838;-48
2023/05/30 07:39:32;;;;;;;4.80;3.90;;;24.60;40.90;;;;;;5034283;28;20432;-47
2023/05/30 07:41:57;;;;;;;6.17;4.80;;;24.70;40.90;;;;;;5033787;28;20197;-48
2023/05/30 07:44:23;;;;;;;5.30;4.00;;;24.80;40.20;;;;;;5034130;28;20197;-48
2023/05/30 07:46:49;;;;;;;5.37;3.80;;;25.00;40.20;;;;;;5032330;28;20197;-48
2023/05/30 07:49:14;;;;;;;4.70;3.93;;;25.20;40.40;;;;;;5034089;28;20201;-48
2023/05/30 07:51:40;;;;;;;5.27;3.80;;;25.40;39.20;;;;;;5033603;28;20204;-49
2023/05/30 07:54:05;;;;;;;4.70;4.17;;;25.60;38.60;;;;;;5045511;28;20185;-48
2023/05/30 07:56:31;;;;;;;5.10;4.20;;;25.70;39.40;;;;;;5046082;28;20673;-47
2023/05/30 07:58:57;;;;;;;8.20;3.90;;;25.80;38.10;;;;;;5033887;28;20534;-49
2023/05/30 08:01:23;;;;;;;4.43;3.80;;;26.00;38.60;;;;;;5033649;28;20276;-48
2023/05/30 08:03:48;;;;;;;4.83;4.00;;;26.00;38.20;;;;;;5033636;28;20201;-48
2023/05/30 08:06:14;;;;;;;8.27;4.00;;;26.00;37.60;;;;;;5041903;28;20639;-51
2023/05/30 08:08:40;;;;;;;7.03;4.60;;;26.10;37.60;;;;;;5051304;28;20287;-51
2023/05/30 08:11:06;;;;;;;8.67;4.70;;;26.40;37.70;;;;;;5032828;28;20247;-52
2023/05/30 08:13:32;;;;;;;3.80;3.27;;;26.50;36.70;;;;;;5031707;28;20440;-48
2023/05/30 08:15:57;;;;;;;4.40;4.00;;;26.80;37.50;;;;;;5033406;28;20221;-49
2023/05/30 08:18:23;;;;;;;5.20;3.93;;;26.90;36.70;;;;;;5033622;28;20194;-48
2023/05/30 08:20:54;;;;;;;7.83;3.93;;;26.90;37.10;;;;;;5033153;28;20221;-48
2023/05/30 08:23:20;;;;;;;5.30;4.13;;;27.10;36.50;;;;;;5033555;28;20550;-49
2023/05/30 08:25:46;;;;;;;5.63;3.70;;;27.00;35.50;;;;;;5033198;28;20526;-49
2023/05/30 08:28:12;;;;;;;4.63;3.77;;;27.20;35.50;;;;;;5033335;28;20463;-49
2023/05/30 08:30:40;;;;;;;3.87;3.47;;;27.40;36.50;;;;;;5032733;28;20478;-49
2023/05/30 08:33:07;;;;;;;5.20;3.90;;;27.50;36.40;;;;;;5033005;28;20435;-52
2023/05/30 08:35:33;;;;;;;5.73;3.93;;;27.70;34.60;;;;;;5032833;28;20439;-48
2023/05/30 08:37:59;;;;;;;6.97;4.43;;;27.80;35.20;;;;;;5033194;28;20428;-47
2023/05/30 08:40:26;;;;;;;8.13;4.13;;;28.10;35.20;;;;;;5030941;28;20193;-49
2023/05/30 08:42:52;;;;;;;6.33;3.97;;;28.20;34.90;;;;;;5032899;28;20212;-52
2023/05/30 08:45:19;;;;;;;7.50;4.30;;;28.20;33.60;;;;;;5032847;28;20424;-50
2023/05/30 08:47:46;;;;;;;6.93;4.73;;;28.10;33.80;;;;;;5032811;28;20201;-51
2023/05/30 08:50:13;;;;;;;4.87;4.20;;;28.10;34.80;;;;;;5032487;28;20424;-53
2023/05/30 08:52:42;;;;;;;6.37;3.80;;;28.20;34.50;;;;;;5032711;28;20927;-52
2023/05/30 08:55:07;;;;;;;4.93;3.80;;;28.30;33.50;;;;;;5032879;28;20427;-49
2023/05/30 08:57:43;;;;;;;4.70;3.80;;;28.50;34.00;;;;;;5032566;28;20492;-52
2023/05/30 09:00:11;;;;;;;6.67;3.57;;;28.60;33.20;;;;;;5032128;28;20559;-50
2023/05/30 09:02:37;;;;;;;5.53;3.93;;;28.70;32.80;;;;;;5032389;28;20482;-51
2023/05/30 09:05:04;;;;;;;6.23;4.00;;;28.60;34.40;;;;;;5032411;28;20456;-50
2023/05/30 09:07:31;;;;;;;3.73;3.30;;;28.70;34.30;;;;;;5049535;28;20550;-52
2023/05/30 09:09:58;;;;;;;6.10;4.10;;;28.70;34.30;;;;;;5039636;28;20858;-50
2023/05/30 09:12:26;;;;;;;3.67;3.37;;;28.90;34.10;;;;;;5032473;28;20811;-53
2023/05/30 09:14:52;;;;;;;6.03;4.47;;;29.10;34.20;;;;;;5032826;28;20424;-51
2023/05/30 09:17:18;;;;;;;6.80;3.90;;;29.50;33.40;;;;;;5032001;28;20574;-52
2023/05/30 09:19:44;;;;;;;8.03;4.03;;;29.60;31.70;;;;;;5031831;28;20594;-52
2023/05/30 09:22:10;;;;;;;10.73;4.20;;;29.90;31.30;;;;;;5031417;28;20197;-52
2023/05/30 09:24:57;;;;;;;6.63;3.87;;;30.00;32.00;;;;;;5032209;28;20486;-53
2023/05/30 09:27:23;;;;;;;5.83;4.30;;;30.10;32.40;;;;;;5032253;28;20498;-53
2023/05/30 09:29:49;;;;;;;11.23;4.60;;;30.20;31.20;;;;;;5031751;28;20486;-51
2023/05/30 09:32:15;;;;;;;6.77;3.30;;;30.10;31.50;;;;;;5031372;28;20428;-53
2023/05/30 09:34:51;;;;;;;10.27;4.57;;;30.30;31.90;;;;;;5031206;28;20189;-51
2023/05/30 09:37:16;;;;;;;4.57;3.57;;;30.30;31.30;;;;;;5032083;28;20223;-53
2023/05/30 09:39:44;;;;;;;5.93;3.93;;;30.20;31.20;;;;;;5031441;28;21050;-53
2023/05/30 09:42:10;;;;;;;5.50;4.70;;;30.40;31.80;;;;;;5031924;28;20247;-53
2023/05/30 09:44:35;;;;;;;4.50;4.10;;;30.50;31.20;;;;;;5031821;28;20412;-52
2023/05/30 09:47:01;;;;;;;5.27;4.10;;;30.60;30.80;;;;;;5031834;28;20200;-52
2023/05/30 09:49:28;;;;;;;5.10;4.20;;;30.60;30.50;;;;;;5031733;28;20699;-53
2023/05/30 09:51:53;;;;;;;6.30;4.20;;;30.60;30.30;;;;;;5031509;28;20267;-52
2023/05/30 09:54:19;;;;;;;4.33;3.80;;;30.50;30.50;;;;;;5045293;28;20415;-50
2023/05/30 09:56:45;;;;;;;4.23;3.87;;;30.80;31.40;;;;;;5040367;28;20678;-52
2023/05/30 09:59:13;;;;;;;5.63;3.87;;;30.90;30.10;;;;;;5030029;28;20566;-53
2023/05/30 10:01:43;;;;;;;6.07;4.20;;;30.90;30.00;;;;;;5031331;28;20194;-53
2023/05/30 10:04:25;;;;;;;4.17;3.50;;;30.80;31.20;;;;;;5031568;28;20793;-53
2023/05/30 10:06:52;;;;;;;8.13;4.13;;;31.00;31.10;;;;;;5044802;28;20467;-53
2023/05/30 10:09:21;;;;;;;4.80;3.70;;;31.30;30.70;;;;;;5044649;28;20582;-53
2023/05/30 10:11:47;;;;;;;5.33;3.90;;;31.30;30.30;;;;;;5030978;28;20923;-53
2023/05/30 10:14:14;;;;;;;7.67;4.33;;;31.50;29.80;;;;;;5031508;28;20531;-52
2023/05/30 10:16:51;;;;;;;5.23;3.93;;;31.30;29.20;;;;;;5031359;28;20483;-52
2023/05/30 10:19:34;;;;;;;6.30;4.03;;;31.40;29.80;;;;;;5031301;28;20966;-52
2023/05/30 10:22:00;;;;;;;7.60;4.40;;;31.50;29.30;;;;;;5031326;28;20483;-49
2023/05/30 10:24:25;;;;;;;6.00;3.60;;;31.20;29.30;;;;;;5031458;28;20483;-53
2023/05/30 10:26:55;;;;;;;4.07;3.67;;;31.20;29.40;;;;;;5029658;28;20548;-53
2023/05/30 10:29:24;;;;;;;4.17;3.70;;;31.40;29.90;;;;;;5031426;28;20331;-53
2023/05/30 10:31:52;;;;;;;5.10;4.27;;;31.80;29.90;;;;;;5030992;28;20429;-53
2023/05/30 10:34:21;;;;;;;4.37;3.60;;;32.00;28.40;;;;;;5035369;28;20876;-53
2023/05/30 10:36:47;;;;;;;4.30;3.90;;;31.80;28.20;;;;;;5035080;28;20487;-53
2023/05/30 10:39:28;;;;;;;8.40;4.63;;;32.10;29.40;;;;;;5035284;28;20517;-52
2023/05/30 10:42:05;;;;;;;7.63;4.53;;;32.10;28.20;;;;;;5042515;28;20996;-53
2023/05/30 10:44:54;;;;;;;5.80;3.67;;;32.30;29.10;;;;;;5054934;28;20945;-52
2023/05/30 10:47:36;;;;;;;4.70;3.77;;;32.20;29.10;;;;;;5055218;28;20576;-51
2023/05/30 10:50:08;;;;;;;5.00;3.77;;;32.40;28.80;;;;;;5054559;28;20883;-52
2023/05/30 10:52:34;;;;;;;6.43;3.90;;;32.40;29.90;;;;;;5053419;28;20749;-53
2023/05/30 10:55:00;;;;;;;5.30;3.70;;;32.40;28.10;;;;;;5035943;28;20466;-52
2023/05/30 10:57:31;;;;;;;7.33;3.73;;;32.30;27.80;;;;;;5034776;28;20232;-52
2023/05/30 11:00:09;;;;;;;4.67;4.03;;;32.60;27.70;;;;;;5034514;28;20519;-53
2023/05/30 11:02:36;;;;;;;5.47;3.60;;;32.80;28.20;;;;;;5034864;28;20439;-50
2023/05/30 11:05:07;;;;;;;7.17;4.37;;;32.90;29.10;;;;;;5034706;28;20466;-50
2023/05/30 11:07:38;;;;;;;6.90;3.90;;;32.90;28.10;;;;;;5053905;28;20439;-53
2023/05/30 11:10:11;;;;;;;7.23;3.80;;;32.60;27.60;;;;;;5040741;28;20468;-53
2023/05/30 11:12:47;;;;;;;4.17;3.77;;;32.70;27.70;;;;;;5042245;28;20427;-49
2023/05/30 11:15:29;;;;;;;7.27;3.47;;;32.80;27.80;;;;;;5054342;28;20454;-52
2023/05/30 11:17:55;;;;;;;4.00;3.67;;;32.50;27.70;;;;;;5054522;28;20821;-51
2023/05/30 11:20:22;;;;;;;4.60;3.83;;;32.50;28.20;;;;;;5052420;28;20489;-49
2023/05/30 11:23:03;;;;;;;5.50;3.53;;;32.70;27.90;;;;;;5054438;28;20450;-52
2023/05/30 11:25:31;;;;;;;5.23;3.77;;;33.00;28.40;;;;;;5054377;28;20427;-51
2023/05/30 11:28:16;;;;;;;4.27;3.57;;;33.40;28.20;;;;;;5054369;28;20806;-49
2023/05/30 11:30:48;;;;;;;5.47;4.30;;;33.80;27.30;;;;;;5053812;28;20438;-52
2023/05/30 11:33:16;;;;;;;7.60;3.50;;;33.80;27.60;;;;;;5045258;28;20555;-54
2023/05/30 11:35:47;;;;;;;9.10;4.10;;;33.80;27.60;;;;;;5034028;28;20964;-51
2023/05/30 11:38:21;;;;;;;5.60;3.53;;;33.80;26.70;;;;;;5034175;28;20904;-52
2023/05/30 11:40:47;;;;;;;5.10;4.10;;;33.80;26.00;;;;;;5033478;28;20436;-50
2023/05/30 11:43:16;;;;;;;3.87;3.50;;;33.80;26.50;;;;;;5033884;28;20424;-49
2023/05/30 11:45:46;;;;;;;5.73;3.83;;;33.70;27.00;;;;;;5031385;28;21007;-52
2023/05/30 11:48:12;;;;;;;3.97;3.57;;;33.80;27.00;;;;;;5040155;28;20669;-50
2023/05/30 11:50:39;;;;;;;5.70;3.53;;;33.80;25.80;;;;;;5053365;28;20518;-52
2023/05/30 11:53:15;;;;;;;5.77;3.80;;;34.00;26.10;;;;;;5050360;28;20277;-53
2023/05/30 11:55:45;;;;;;;5.47;3.30;;;34.20;26.50;;;;;;5033409;28;20462;-51
2023/05/30 11:58:11;;;;;;;4.47;3.43;;;34.10;26.70;;;;;;5033538;28;20522;-53
2023/05/30 12:00:40;;;;;;;4.80;4.10;;;34.00;26.60;;;;;;5033140;28;20435;-53
2023/05/30 12:03:06;;;;;;;6.90;3.77;;;34.20;26.30;;;;;;5033490;28;20891;-52
2023/05/30 12:05:31;;;;;;;4.93;3.70;;;34.30;25.70;;;;;;5035652;28;20512;-49
2023/05/30 12:07:57;;;;;;;6.37;4.17;;;34.50;25.80;;;;;;5053423;28;20189;-50
2023/05/30 12:10:29;;;;;;;4.40;4.00;;;34.50;26.20;;;;;;5037079;28;20201;-50
2023/05/30 12:12:55;;;;;;;7.10;3.53;;;34.10;25.50;;;;;;5031843;28;20555;-50
2023/05/30 12:15:21;;;;;;;4.00;2.90;;;34.00;27.00;;;;;;5033482;28;20540;-50
2023/05/30 12:17:47;;;;;;;4.80;4.10;;;33.80;26.70;;;;;;5033050;28;20227;-50
2023/05/30 12:20:13;;;;;;;4.33;3.50;;;33.60;26.10;;;;;;5032711;28;20235;-49
2023/05/30 12:22:45;;;;;;;4.17;3.60;;;33.60;26.40;;;;;;5033356;28;20272;-52
2023/05/30 12:25:12;;;;;;;4.93;3.90;;;33.80;26.70;;;;;;5033029;28;20967;-50
2023/05/30 12:27:47;;;;;;;4.80;3.60;;;33.80;26.80;;;;;;5033138;28;20759;-50
2023/05/30 12:30:16;;;;;;;5.07;3.70;;;34.20;26.40;;;;;;5032601;28;20427;-49
2023/05/30 12:32:42;;;;;;;9.30;4.10;;;34.20;26.30;;;;;;5032952;28;20565;-48
2023/05/30 12:35:08;;;;;;;4.80;3.60;;;34.00;25.30;;;;;;5032820;28;20501;-49
2023/05/30 12:37:35;;;;;;;4.23;3.50;;;33.80;26.20;;;;;;5032115;28;20475;-50
2023/05/30 12:40:02;;;;;;;6.60;3.57;;;33.50;26.70;;;;;;5031580;28;20481;-49
2023/05/30 12:42:29;;;;;;;4.37;3.10;;;33.60;26.40;;;;;;5032746;28;20428;-48
2023/05/30 12:44:57;;;;;;;8.00;3.60;;;33.70;26.70;;;;;;5032759;28;20416;-49
2023/05/30 12:47:23;;;;;;;5.20;3.80;;;33.60;27.00;;;;;;5032934;28;20432;-49
2023/05/30 12:49:49;;;;;;;4.80;3.70;;;33.80;26.40;;;;;;5032407;28;20426;-52